Huvudsida
METAR-TAF:

METAR-TAF

Flygplatser :

Århus flygplats

Århus, Danmark

latitud: 56-18N, longitud: 010-37E, höjd: 23 m

Aktuellt väderrapport

Denna rapport gjordes för 17 minuter sedan, klockan 18:20 UTC
Vind 9 kt från ost/nordost
Temperatur 3°C
Fuktighet 81%
Tryck 1029 hPa
Sikt 10 km eller mer

METAR: EKAH 131820Z AUTO 07009KT 9999NDV BKN020/// 03/M00 Q1029

Tid: 19:37 (18:37 UTC)

Väderprognos

Denna rapport gjordes för 1 timme och 27 minuter sedan, klockan 17:10 UTC
Prognos gäller från 13 kl. 18 UTC till 14 kl. 18 UTC
Vind 5 kt från ost/nordost
Sikt 10 km eller mer
Brutna moln på en höjd av 3000 ft
Temporärt
från 13 kl. 18 UTC till 14 kl. 18 UTC
Sikt: 4000 m
Brutna moln på en höjd av 800 ft
Brutna moln på en höjd av 1200 ft, Högtornande cumulus.
lätta regnskurar, snö

TAF: EKAH 131710Z 1318/1418 06005KT 9999 BKN030 TEMPO 1318/1418 4000 -SHRASN BKN008 BKN012TCU

Aktuella väderrapporter och prognoser från 4000 flygplatser (METAR- och TAF-rapporter).

De tillgängliga stationerna syns som gula och röda prickar på kartan.

För musen över prickarna för att se namnen på stationerna.

Klicka sedan för att få väderrapporter och prognoser.

För att ändra kartan: Klicka på de gröna knapparna med ett svart kors på för att zooma in; den gröna knappen med ett streck på för att zooma ut; eller på de gröna pilarna för angränsande kartor.


METAR-TAF: